sensor_id;sensor_type;location;lat;lon;timestamp;P1;durP1;ratioP1;P2;durP2;ratioP2
5147;SDS011;2592;48.140;7.614;2022-09-03T00:00:13;5.90;;;3.93;;
5147;SDS011;2592;48.140;7.614;2022-09-03T00:02:40;5.93;;;4.37;;
5147;SDS011;2592;48.140;7.614;2022-09-03T00:05:12;5.07;;;4.10;;
5147;SDS011;2592;48.140;7.614;2022-09-03T00:07:42;10.70;;;4.17;;
5147;SDS011;2592;48.140;7.614;2022-09-03T00:10:11;8.13;;;4.50;;
5147;SDS011;2592;48.140;7.614;2022-09-03T00:12:41;13.87;;;4.20;;
5147;SDS011;2592;48.140;7.614;2022-09-03T00:15:09;4.53;;;3.63;;
5147;SDS011;2592;48.140;7.614;2022-09-03T00:17:37;5.03;;;3.43;;
5147;SDS011;2592;48.140;7.614;2022-09-03T00:20:06;5.23;;;4.30;;
5147;SDS011;2592;48.140;7.614;2022-09-03T00:22:38;5.73;;;2.97;;
5147;SDS011;2592;48.140;7.614;2022-09-03T00:25:07;6.00;;;3.20;;
5147;SDS011;2592;48.140;7.614;2022-09-03T00:27:38;5.20;;;3.50;;
5147;SDS011;2592;48.140;7.614;2022-09-03T00:30:07;8.40;;;3.13;;
5147;SDS011;2592;48.140;7.614;2022-09-03T00:32:36;8.30;;;3.30;;
5147;SDS011;2592;48.140;7.614;2022-09-03T00:35:05;6.10;;;3.20;;
5147;SDS011;2592;48.140;7.614;2022-09-03T00:37:34;5.90;;;3.70;;
5147;SDS011;2592;48.140;7.614;2022-09-03T00:40:02;4.70;;;3.40;;
5147;SDS011;2592;48.140;7.614;2022-09-03T00:42:35;8.70;;;3.37;;
5147;SDS011;2592;48.140;7.614;2022-09-03T00:47:55;5.70;;;3.53;;
5147;SDS011;2592;48.140;7.614;2022-09-03T00:50:30;4.60;;;3.67;;
5147;SDS011;2592;48.140;7.614;2022-09-03T00:53:02;4.80;;;3.90;;
5147;SDS011;2592;48.140;7.614;2022-09-03T00:55:34;6.67;;;4.73;;
5147;SDS011;2592;48.140;7.614;2022-09-03T00:58:06;5.33;;;3.93;;
5147;SDS011;2592;48.140;7.614;2022-09-03T01:00:37;7.03;;;4.17;;
5147;SDS011;2592;48.140;7.614;2022-09-03T01:03:08;8.93;;;4.47;;
5147;SDS011;2592;48.140;7.614;2022-09-03T01:05:39;4.70;;;3.77;;
5147;SDS011;2592;48.140;7.614;2022-09-03T01:08:10;7.07;;;4.80;;
5147;SDS011;2592;48.140;7.614;2022-09-03T01:10:43;4.93;;;4.37;;
5147;SDS011;2592;48.140;7.614;2022-09-03T01:13:12;10.07;;;4.90;;
5147;SDS011;2592;48.140;7.614;2022-09-03T01:15:42;4.90;;;4.40;;
5147;SDS011;2592;48.140;7.614;2022-09-03T01:18:13;6.73;;;4.47;;
5147;SDS011;2592;48.140;7.614;2022-09-03T01:20:48;4.33;;;3.93;;
5147;SDS011;2592;48.140;7.614;2022-09-03T01:26:19;4.93;;;4.40;;
5147;SDS011;2592;48.140;7.614;2022-09-03T01:28:54;6.97;;;4.13;;
5147;SDS011;2592;48.140;7.614;2022-09-03T01:31:28;6.40;;;4.40;;
5147;SDS011;2592;48.140;7.614;2022-09-03T01:33:59;6.80;;;4.90;;
5147;SDS011;2592;48.140;7.614;2022-09-03T01:36:30;6.80;;;4.90;;
5147;SDS011;2592;48.140;7.614;2022-09-03T01:39:00;5.50;;;4.17;;
5147;SDS011;2592;48.140;7.614;2022-09-03T01:41:29;5.60;;;4.57;;
5147;SDS011;2592;48.140;7.614;2022-09-03T01:44:20;6.10;;;4.23;;
5147;SDS011;2592;48.140;7.614;2022-09-03T01:46:49;9.83;;;4.17;;
5147;SDS011;2592;48.140;7.614;2022-09-03T01:49:18;6.17;;;4.17;;
5147;SDS011;2592;48.140;7.614;2022-09-03T01:51:47;21.80;;;4.70;;
5147;SDS011;2592;48.140;7.614;2022-09-03T01:54:20;8.63;;;4.37;;
5147;SDS011;2592;48.140;7.614;2022-09-03T01:57:02;16.40;;;6.00;;
5147;SDS011;2592;48.140;7.614;2022-09-03T01:59:36;14.33;;;5.80;;
5147;SDS011;2592;48.140;7.614;2022-09-03T02:02:06;10.43;;;5.40;;
5147;SDS011;2592;48.140;7.614;2022-09-03T02:04:35;7.43;;;4.90;;
5147;SDS011;2592;48.140;7.614;2022-09-03T02:07:02;7.67;;;4.80;;
5147;SDS011;2592;48.140;7.614;2022-09-03T02:09:29;7.57;;;4.63;;
5147;SDS011;2592;48.140;7.614;2022-09-03T02:11:57;9.50;;;4.50;;
5147;SDS011;2592;48.140;7.614;2022-09-03T02:14:24;8.13;;;4.97;;
5147;SDS011;2592;48.140;7.614;2022-09-03T02:16:53;7.27;;;4.50;;
5147;SDS011;2592;48.140;7.614;2022-09-03T02:19:20;8.60;;;4.60;;
5147;SDS011;2592;48.140;7.614;2022-09-03T02:21:48;5.50;;;4.17;;
5147;SDS011;2592;48.140;7.614;2022-09-03T02:24:15;3.93;;;3.20;;
5147;SDS011;2592;48.140;7.614;2022-09-03T02:26:42;6.73;;;3.03;;
5147;SDS011;2592;48.140;7.614;2022-09-03T02:29:08;7.53;;;3.77;;
5147;SDS011;2592;48.140;7.614;2022-09-03T02:31:35;4.07;;;2.67;;
5147;SDS011;2592;48.140;7.614;2022-09-03T02:34:03;4.93;;;3.47;;
5147;SDS011;2592;48.140;7.614;2022-09-03T02:36:29;3.40;;;2.90;;
5147;SDS011;2592;48.140;7.614;2022-09-03T02:38:57;5.40;;;3.30;;
5147;SDS011;2592;48.140;7.614;2022-09-03T02:41:23;3.97;;;3.03;;
5147;SDS011;2592;48.140;7.614;2022-09-03T02:43:52;4.13;;;3.40;;
5147;SDS011;2592;48.140;7.614;2022-09-03T02:46:21;3.10;;;2.70;;
5147;SDS011;2592;48.140;7.614;2022-09-03T02:48:47;3.83;;;2.90;;
5147;SDS011;2592;48.140;7.614;2022-09-03T02:51:15;6.27;;;3.17;;
5147;SDS011;2592;48.140;7.614;2022-09-03T02:53:41;6.27;;;3.40;;
5147;SDS011;2592;48.140;7.614;2022-09-03T02:56:08;4.50;;;3.10;;
5147;SDS011;2592;48.140;7.614;2022-09-03T02:58:34;2.80;;;2.43;;
5147;SDS011;2592;48.140;7.614;2022-09-03T03:01:01;4.73;;;3.03;;
5147;SDS011;2592;48.140;7.614;2022-09-03T03:03:27;3.50;;;2.73;;
5147;SDS011;2592;48.140;7.614;2022-09-03T03:05:54;3.53;;;2.60;;
5147;SDS011;2592;48.140;7.614;2022-09-03T03:08:24;4.30;;;3.00;;
5147;SDS011;2592;48.140;7.614;2022-09-03T03:10:51;4.47;;;3.10;;
5147;SDS011;2592;48.140;7.614;2022-09-03T03:13:18;2.87;;;2.20;;
5147;SDS011;2592;48.140;7.614;2022-09-03T03:15:44;3.70;;;2.43;;
5147;SDS011;2592;48.140;7.614;2022-09-03T03:18:11;4.90;;;2.83;;
5147;SDS011;2592;48.140;7.614;2022-09-03T03:20:38;9.00;;;2.77;;
5147;SDS011;2592;48.140;7.614;2022-09-03T03:23:05;4.30;;;2.40;;
5147;SDS011;2592;48.140;7.614;2022-09-03T03:25:33;3.40;;;2.63;;
5147;SDS011;2592;48.140;7.614;2022-09-03T03:28:00;3.20;;;2.50;;
5147;SDS011;2592;48.140;7.614;2022-09-03T03:30:28;3.23;;;2.40;;
5147;SDS011;2592;48.140;7.614;2022-09-03T03:32:54;5.17;;;2.40;;
5147;SDS011;2592;48.140;7.614;2022-09-03T03:35:21;2.73;;;2.13;;
5147;SDS011;2592;48.140;7.614;2022-09-03T03:37:47;3.80;;;2.73;;
5147;SDS011;2592;48.140;7.614;2022-09-03T03:40:14;7.80;;;2.83;;
5147;SDS011;2592;48.140;7.614;2022-09-03T03:42:42;7.33;;;2.60;;
5147;SDS011;2592;48.140;7.614;2022-09-03T03:45:08;6.00;;;2.70;;
5147;SDS011;2592;48.140;7.614;2022-09-03T03:47:35;2.80;;;2.50;;
5147;SDS011;2592;48.140;7.614;2022-09-03T03:50:02;3.90;;;2.80;;
5147;SDS011;2592;48.140;7.614;2022-09-03T03:52:29;5.83;;;3.03;;
5147;SDS011;2592;48.140;7.614;2022-09-03T03:54:55;5.90;;;3.00;;
5147;SDS011;2592;48.140;7.614;2022-09-03T03:57:22;4.07;;;2.93;;
5147;SDS011;2592;48.140;7.614;2022-09-03T03:59:49;7.90;;;3.57;;
5147;SDS011;2592;48.140;7.614;2022-09-03T04:02:16;3.43;;;2.57;;
5147;SDS011;2592;48.140;7.614;2022-09-03T04:04:42;5.47;;;2.93;;
5147;SDS011;2592;48.140;7.614;2022-09-03T04:07:09;2.93;;;2.63;;
5147;SDS011;2592;48.140;7.614;2022-09-03T04:09:35;5.10;;;2.80;;
5147;SDS011;2592;48.140;7.614;2022-09-03T04:12:02;9.47;;;3.30;;
5147;SDS011;2592;48.140;7.614;2022-09-03T04:14:29;8.50;;;3.70;;
5147;SDS011;2592;48.140;7.614;2022-09-03T04:16:57;4.47;;;3.27;;
5147;SDS011;2592;48.140;7.614;2022-09-03T04:19:23;6.40;;;2.97;;
5147;SDS011;2592;48.140;7.614;2022-09-03T04:21:50;8.77;;;3.80;;
5147;SDS011;2592;48.140;7.614;2022-09-03T04:24:16;3.37;;;3.07;;
5147;SDS011;2592;48.140;7.614;2022-09-03T04:26:42;5.73;;;3.00;;
5147;SDS011;2592;48.140;7.614;2022-09-03T04:29:09;3.43;;;2.73;;
5147;SDS011;2592;48.140;7.614;2022-09-03T04:31:36;3.63;;;3.00;;
5147;SDS011;2592;48.140;7.614;2022-09-03T04:34:04;4.10;;;2.57;;
5147;SDS011;2592;48.140;7.614;2022-09-03T04:36:31;2.90;;;2.30;;
5147;SDS011;2592;48.140;7.614;2022-09-03T04:38:58;3.23;;;2.20;;
5147;SDS011;2592;48.140;7.614;2022-09-03T04:41:26;4.60;;;2.47;;
5147;SDS011;2592;48.140;7.614;2022-09-03T04:43:53;3.37;;;2.70;;
5147;SDS011;2592;48.140;7.614;2022-09-03T04:46:21;3.53;;;2.60;;
5147;SDS011;2592;48.140;7.614;2022-09-03T04:48:48;2.70;;;2.50;;
5147;SDS011;2592;48.140;7.614;2022-09-03T04:51:17;2.80;;;2.43;;
5147;SDS011;2592;48.140;7.614;2022-09-03T04:53:44;4.70;;;3.17;;
5147;SDS011;2592;48.140;7.614;2022-09-03T04:56:11;3.00;;;2.53;;
5147;SDS011;2592;48.140;7.614;2022-09-03T04:58:38;2.83;;;2.50;;
5147;SDS011;2592;48.140;7.614;2022-09-03T05:01:06;4.20;;;2.97;;
5147;SDS011;2592;48.140;7.614;2022-09-03T05:03:32;3.60;;;2.30;;
5147;SDS011;2592;48.140;7.614;2022-09-03T05:06:00;2.80;;;2.60;;
5147;SDS011;2592;48.140;7.614;2022-09-03T05:08:28;3.00;;;2.70;;
5147;SDS011;2592;48.140;7.614;2022-09-03T05:10:57;3.13;;;2.83;;
5147;SDS011;2592;48.140;7.614;2022-09-03T05:13:23;4.03;;;3.07;;
5147;SDS011;2592;48.140;7.614;2022-09-03T05:15:50;2.63;;;2.43;;
5147;SDS011;2592;48.140;7.614;2022-09-03T05:18:16;3.77;;;2.43;;
5147;SDS011;2592;48.140;7.614;2022-09-03T05:20:43;6.93;;;3.47;;
5147;SDS011;2592;48.140;7.614;2022-09-03T05:23:09;4.47;;;3.33;;
5147;SDS011;2592;48.140;7.614;2022-09-03T05:25:37;3.73;;;3.00;;
5147;SDS011;2592;48.140;7.614;2022-09-03T05:28:03;3.57;;;2.80;;
5147;SDS011;2592;48.140;7.614;2022-09-03T05:30:29;4.03;;;3.20;;
5147;SDS011;2592;48.140;7.614;2022-09-03T05:32:56;5.07;;;3.60;;
5147;SDS011;2592;48.140;7.614;2022-09-03T05:35:22;5.30;;;3.10;;
5147;SDS011;2592;48.140;7.614;2022-09-03T05:37:50;4.80;;;2.67;;
5147;SDS011;2592;48.140;7.614;2022-09-03T05:40:19;4.70;;;3.57;;
5147;SDS011;2592;48.140;7.614;2022-09-03T05:42:47;4.03;;;3.20;;
5147;SDS011;2592;48.140;7.614;2022-09-03T05:45:13;3.20;;;2.37;;
5147;SDS011;2592;48.140;7.614;2022-09-03T05:47:40;9.03;;;2.97;;
5147;SDS011;2592;48.140;7.614;2022-09-03T05:50:07;6.47;;;3.47;;
5147;SDS011;2592;48.140;7.614;2022-09-03T05:52:34;5.50;;;3.37;;
5147;SDS011;2592;48.140;7.614;2022-09-03T05:55:01;5.87;;;3.00;;
5147;SDS011;2592;48.140;7.614;2022-09-03T05:57:27;6.93;;;2.90;;
5147;SDS011;2592;48.140;7.614;2022-09-03T05:59:56;4.03;;;2.90;;
5147;SDS011;2592;48.140;7.614;2022-09-03T06:02:22;5.20;;;3.00;;
5147;SDS011;2592;48.140;7.614;2022-09-03T06:04:48;3.70;;;2.97;;
5147;SDS011;2592;48.140;7.614;2022-09-03T06:07:15;5.17;;;3.80;;
5147;SDS011;2592;48.140;7.614;2022-09-03T06:09:41;5.83;;;3.80;;
5147;SDS011;2592;48.140;7.614;2022-09-03T06:12:08;3.70;;;3.40;;
5147;SDS011;2592;48.140;7.614;2022-09-03T06:14:34;4.13;;;3.50;;
5147;SDS011;2592;48.140;7.614;2022-09-03T06:17:02;4.57;;;3.60;;
5147;SDS011;2592;48.140;7.614;2022-09-03T06:19:28;3.83;;;3.43;;
5147;SDS011;2592;48.140;7.614;2022-09-03T06:21:55;5.57;;;3.67;;
5147;SDS011;2592;48.140;7.614;2022-09-03T06:24:21;7.53;;;3.90;;
5147;SDS011;2592;48.140;7.614;2022-09-03T06:26:51;5.23;;;4.20;;
5147;SDS011;2592;48.140;7.614;2022-09-03T06:29:17;5.23;;;4.23;;
5147;SDS011;2592;48.140;7.614;2022-09-03T06:31:44;7.20;;;3.90;;
5147;SDS011;2592;48.140;7.614;2022-09-03T06:34:12;6.27;;;3.90;;
5147;SDS011;2592;48.140;7.614;2022-09-03T06:36:38;5.13;;;3.83;;
5147;SDS011;2592;48.140;7.614;2022-09-03T06:39:06;8.80;;;4.07;;
5147;SDS011;2592;48.140;7.614;2022-09-03T06:41:32;4.17;;;3.77;;
5147;SDS011;2592;48.140;7.614;2022-09-03T06:44:00;4.80;;;3.70;;
5147;SDS011;2592;48.140;7.614;2022-09-03T06:46:28;7.17;;;4.53;;
5147;SDS011;2592;48.140;7.614;2022-09-03T06:48:54;5.83;;;4.30;;
5147;SDS011;2592;48.140;7.614;2022-09-03T06:51:22;5.30;;;4.43;;
5147;SDS011;2592;48.140;7.614;2022-09-03T06:53:50;7.83;;;4.30;;
5147;SDS011;2592;48.140;7.614;2022-09-03T06:56:17;4.43;;;3.67;;
5147;SDS011;2592;48.140;7.614;2022-09-03T06:58:47;7.00;;;4.67;;
5147;SDS011;2592;48.140;7.614;2022-09-03T07:01:15;9.23;;;4.90;;
5147;SDS011;2592;48.140;7.614;2022-09-03T07:03:42;8.47;;;4.93;;
5147;SDS011;2592;48.140;7.614;2022-09-03T07:06:09;8.63;;;5.20;;
5147;SDS011;2592;48.140;7.614;2022-09-03T07:08:37;8.07;;;5.20;;
5147;SDS011;2592;48.140;7.614;2022-09-03T07:11:04;9.17;;;4.73;;
5147;SDS011;2592;48.140;7.614;2022-09-03T07:13:33;6.33;;;4.57;;
5147;SDS011;2592;48.140;7.614;2022-09-03T07:16:00;6.67;;;4.73;;
5147;SDS011;2592;48.140;7.614;2022-09-03T07:18:26;6.97;;;4.70;;
5147;SDS011;2592;48.140;7.614;2022-09-03T07:20:56;6.87;;;4.40;;
5147;SDS011;2592;48.140;7.614;2022-09-03T07:23:22;7.57;;;4.93;;
5147;SDS011;2592;48.140;7.614;2022-09-03T07:25:52;6.30;;;4.10;;
5147;SDS011;2592;48.140;7.614;2022-09-03T07:28:19;5.30;;;4.63;;
5147;SDS011;2592;48.140;7.614;2022-09-03T07:30:45;5.77;;;4.50;;
5147;SDS011;2592;48.140;7.614;2022-09-03T07:33:12;5.17;;;3.93;;
5147;SDS011;2592;48.140;7.614;2022-09-03T07:35:38;9.83;;;4.33;;
5147;SDS011;2592;48.140;7.614;2022-09-03T07:38:04;4.53;;;3.30;;
5147;SDS011;2592;48.140;7.614;2022-09-03T07:40:32;4.50;;;4.10;;
5147;SDS011;2592;48.140;7.614;2022-09-03T07:42:59;4.13;;;3.70;;
5147;SDS011;2592;48.140;7.614;2022-09-03T07:45:27;6.83;;;4.50;;
5147;SDS011;2592;48.140;7.614;2022-09-03T07:47:53;8.80;;;4.00;;
5147;SDS011;2592;48.140;7.614;2022-09-03T07:50:20;6.40;;;3.83;;
5147;SDS011;2592;48.140;7.614;2022-09-03T07:52:46;4.23;;;3.83;;
5147;SDS011;2592;48.140;7.614;2022-09-03T07:55:13;6.90;;;4.10;;
5147;SDS011;2592;48.140;7.614;2022-09-03T07:57:39;4.83;;;4.00;;
5147;SDS011;2592;48.140;7.614;2022-09-03T08:00:08;3.90;;;3.50;;
5147;SDS011;2592;48.140;7.614;2022-09-03T08:02:35;7.70;;;3.90;;
5147;SDS011;2592;48.140;7.614;2022-09-03T08:05:01;4.40;;;3.70;;
5147;SDS011;2592;48.140;7.614;2022-09-03T08:07:28;5.87;;;3.73;;
5147;SDS011;2592;48.140;7.614;2022-09-03T08:09:54;5.27;;;3.97;;
5147;SDS011;2592;48.140;7.614;2022-09-03T08:12:21;5.43;;;4.30;;
5147;SDS011;2592;48.140;7.614;2022-09-03T08:14:48;14.33;;;4.33;;
5147;SDS011;2592;48.140;7.614;2022-09-03T08:17:15;4.60;;;4.07;;
5147;SDS011;2592;48.140;7.614;2022-09-03T08:19:42;4.03;;;3.40;;
5147;SDS011;2592;48.140;7.614;2022-09-03T08:22:10;5.13;;;3.67;;
5147;SDS011;2592;48.140;7.614;2022-09-03T08:24:36;5.60;;;3.60;;
5147;SDS011;2592;48.140;7.614;2022-09-03T08:27:03;7.53;;;3.93;;
5147;SDS011;2592;48.140;7.614;2022-09-03T08:29:29;8.50;;;3.07;;
5147;SDS011;2592;48.140;7.614;2022-09-03T08:31:56;4.40;;;3.40;;
5147;SDS011;2592;48.140;7.614;2022-09-03T08:34:24;4.70;;;3.20;;
5147;SDS011;2592;48.140;7.614;2022-09-03T08:36:50;3.50;;;2.90;;
5147;SDS011;2592;48.140;7.614;2022-09-03T08:39:18;3.77;;;2.73;;
5147;SDS011;2592;48.140;7.614;2022-09-03T08:41:55;5.60;;;3.33;;
5147;SDS011;2592;48.140;7.614;2022-09-03T08:44:26;3.20;;;2.77;;
5147;SDS011;2592;48.140;7.614;2022-09-03T08:46:54;5.00;;;3.20;;
5147;SDS011;2592;48.140;7.614;2022-09-03T08:49:25;3.77;;;2.93;;
5147;SDS011;2592;48.140;7.614;2022-09-03T08:51:53;5.47;;;2.80;;
5147;SDS011;2592;48.140;7.614;2022-09-03T08:54:23;3.63;;;2.77;;
5147;SDS011;2592;48.140;7.614;2022-09-03T08:56:49;3.70;;;3.07;;
5147;SDS011;2592;48.140;7.614;2022-09-03T08:59:16;3.90;;;2.60;;
5147;SDS011;2592;48.140;7.614;2022-09-03T09:01:46;3.10;;;2.33;;
5147;SDS011;2592;48.140;7.614;2022-09-03T09:04:19;2.63;;;2.23;;
5147;SDS011;2592;48.140;7.614;2022-09-03T09:06:51;3.00;;;2.70;;
5147;SDS011;2592;48.140;7.614;2022-09-03T09:09:22;3.63;;;3.00;;
5147;SDS011;2592;48.140;7.614;2022-09-03T09:11:54;2.30;;;2.10;;
5147;SDS011;2592;48.140;7.614;2022-09-03T09:14:24;3.03;;;2.70;;
5147;SDS011;2592;48.140;7.614;2022-09-03T09:16:53;3.03;;;2.50;;
5147;SDS011;2592;48.140;7.614;2022-09-03T09:19:29;3.30;;;3.00;;
5147;SDS011;2592;48.140;7.614;2022-09-03T09:21:58;2.30;;;2.10;;
5147;SDS011;2592;48.140;7.614;2022-09-03T09:24:27;2.90;;;2.50;;
5147;SDS011;2592;48.140;7.614;2022-09-03T09:26:59;4.47;;;2.63;;
5147;SDS011;2592;48.140;7.614;2022-09-03T09:29:26;3.50;;;2.30;;
5147;SDS011;2592;48.140;7.614;2022-09-03T09:31:53;3.10;;;2.57;;
5147;SDS011;2592;48.140;7.614;2022-09-03T09:34:20;3.40;;;2.90;;
5147;SDS011;2592;48.140;7.614;2022-09-03T09:36:47;3.70;;;2.90;;
5147;SDS011;2592;48.140;7.614;2022-09-03T09:39:15;2.80;;;2.30;;
5147;SDS011;2592;48.140;7.614;2022-09-03T09:41:42;4.60;;;2.70;;
5147;SDS011;2592;48.140;7.614;2022-09-03T09:44:16;14.03;;;2.50;;
5147;SDS011;2592;48.140;7.614;2022-09-03T09:46:44;4.50;;;2.13;;
5147;SDS011;2592;48.140;7.614;2022-09-03T09:49:20;9.80;;;2.23;;
5147;SDS011;2592;48.140;7.614;2022-09-03T09:51:59;4.70;;;2.30;;
5147;SDS011;2592;48.140;7.614;2022-09-03T09:54:27;2.17;;;1.90;;
5147;SDS011;2592;48.140;7.614;2022-09-03T09:56:57;2.23;;;1.50;;
5147;SDS011;2592;48.140;7.614;2022-09-03T09:59:24;4.83;;;2.07;;
5147;SDS011;2592;48.140;7.614;2022-09-03T10:01:50;8.80;;;2.10;;
5147;SDS011;2592;48.140;7.614;2022-09-03T10:04:29;5.90;;;2.87;;
5147;SDS011;2592;48.140;7.614;2022-09-03T10:06:59;6.77;;;2.03;;
5147;SDS011;2592;48.140;7.614;2022-09-03T10:09:29;3.97;;;2.23;;
5147;SDS011;2592;48.140;7.614;2022-09-03T10:11:57;1.70;;;1.30;;
5147;SDS011;2592;48.140;7.614;2022-09-03T10:14:28;8.60;;;0.90;;
5147;SDS011;2592;48.140;7.614;2022-09-03T10:16:58;10.53;;;1.20;;
5147;SDS011;2592;48.140;7.614;2022-09-03T10:19:27;3.60;;;1.00;;
5147;SDS011;2592;48.140;7.614;2022-09-03T10:22:00;1.17;;;0.70;;
5147;SDS011;2592;48.140;7.614;2022-09-03T10:24:32;3.53;;;0.90;;
5147;SDS011;2592;48.140;7.614;2022-09-03T10:27:03;3.10;;;0.90;;
5147;SDS011;2592;48.140;7.614;2022-09-03T10:29:31;1.00;;;0.67;;
5147;SDS011;2592;48.140;7.614;2022-09-03T10:32:01;1.50;;;0.83;;
5147;SDS011;2592;48.140;7.614;2022-09-03T10:34:31;2.20;;;0.80;;
5147;SDS011;2592;48.140;7.614;2022-09-03T10:37:01;1.10;;;0.70;;
5147;SDS011;2592;48.140;7.614;2022-09-03T10:39:37;2.10;;;1.13;;
5147;SDS011;2592;48.140;7.614;2022-09-03T10:42:07;0.80;;;0.60;;
5147;SDS011;2592;48.140;7.614;2022-09-03T10:44:44;2.30;;;1.00;;
5147;SDS011;2592;48.140;7.614;2022-09-03T10:47:29;6.03;;;1.07;;
5147;SDS011;2592;48.140;7.614;2022-09-03T10:50:00;2.83;;;1.10;;
5147;SDS011;2592;48.140;7.614;2022-09-03T10:52:31;1.70;;;1.20;;
5147;SDS011;2592;48.140;7.614;2022-09-03T10:55:06;1.23;;;0.80;;
5147;SDS011;2592;48.140;7.614;2022-09-03T10:57:37;4.00;;;1.17;;
5147;SDS011;2592;48.140;7.614;2022-09-03T11:00:06;9.03;;;0.90;;
5147;SDS011;2592;48.140;7.614;2022-09-03T11:02:45;1.73;;;0.80;;
5147;SDS011;2592;48.140;7.614;2022-09-03T11:05:13;1.60;;;0.97;;
5147;SDS011;2592;48.140;7.614;2022-09-03T11:07:42;1.50;;;0.90;;
5147;SDS011;2592;48.140;7.614;2022-09-03T11:10:12;1.07;;;0.73;;
5147;SDS011;2592;48.140;7.614;2022-09-03T11:12:42;2.13;;;0.63;;
5147;SDS011;2592;48.140;7.614;2022-09-03T11:15:11;0.97;;;0.70;;
5147;SDS011;2592;48.140;7.614;2022-09-03T11:17:41;1.10;;;0.80;;
5147;SDS011;2592;48.140;7.614;2022-09-03T11:20:13;1.73;;;0.90;;
5147;SDS011;2592;48.140;7.614;2022-09-03T11:22:41;1.40;;;0.80;;
5147;SDS011;2592;48.140;7.614;2022-09-03T11:25:09;1.40;;;1.00;;
5147;SDS011;2592;48.140;7.614;2022-09-03T11:27:44;2.67;;;0.93;;
5147;SDS011;2592;48.140;7.614;2022-09-03T11:30:13;1.43;;;0.83;;
5147;SDS011;2592;48.140;7.614;2022-09-03T11:32:48;1.70;;;0.90;;
5147;SDS011;2592;48.140;7.614;2022-09-03T11:35:23;2.10;;;1.00;;
5147;SDS011;2592;48.140;7.614;2022-09-03T11:37:52;2.03;;;1.17;;
5147;SDS011;2592;48.140;7.614;2022-09-03T11:40:19;2.53;;;0.90;;
5147;SDS011;2592;48.140;7.614;2022-09-03T11:42:49;5.40;;;1.30;;
5147;SDS011;2592;48.140;7.614;2022-09-03T11:45:19;1.37;;;0.93;;
5147;SDS011;2592;48.140;7.614;2022-09-03T11:47:46;3.00;;;0.83;;
5147;SDS011;2592;48.140;7.614;2022-09-03T11:50:18;1.27;;;1.07;;
5147;SDS011;2592;48.140;7.614;2022-09-03T11:52:45;2.13;;;1.00;;
5147;SDS011;2592;48.140;7.614;2022-09-03T11:55:11;3.13;;;1.00;;
5147;SDS011;2592;48.140;7.614;2022-09-03T11:57:50;2.70;;;1.10;;
5147;SDS011;2592;48.140;7.614;2022-09-03T12:00:17;2.10;;;1.27;;
5147;SDS011;2592;48.140;7.614;2022-09-03T12:02:46;2.53;;;1.27;;
5147;SDS011;2592;48.140;7.614;2022-09-03T12:05:16;2.00;;;1.20;;
5147;SDS011;2592;48.140;7.614;2022-09-03T12:07:52;1.10;;;0.90;;
5147;SDS011;2592;48.140;7.614;2022-09-03T12:10:26;2.00;;;0.90;;
5147;SDS011;2592;48.140;7.614;2022-09-03T12:13:00;1.57;;;1.20;;
5147;SDS011;2592;48.140;7.614;2022-09-03T12:15:35;1.07;;;0.80;;
5147;SDS011;2592;48.140;7.614;2022-09-03T12:18:07;1.57;;;0.90;;
5147;SDS011;2592;48.140;7.614;2022-09-03T12:20:44;1.43;;;1.00;;
5147;SDS011;2592;48.140;7.614;2022-09-03T12:23:11;3.90;;;1.00;;
5147;SDS011;2592;48.140;7.614;2022-09-03T12:25:41;1.83;;;1.00;;
5147;SDS011;2592;48.140;7.614;2022-09-03T12:28:11;1.63;;;1.00;;
5147;SDS011;2592;48.140;7.614;2022-09-03T12:30:41;1.87;;;1.00;;
5147;SDS011;2592;48.140;7.614;2022-09-03T12:33:07;1.73;;;0.83;;
5147;SDS011;2592;48.140;7.614;2022-09-03T12:35:37;8.33;;;1.20;;
5147;SDS011;2592;48.140;7.614;2022-09-03T12:38:03;1.57;;;1.00;;
5147;SDS011;2592;48.140;7.614;2022-09-03T12:40:30;1.60;;;1.00;;
5147;SDS011;2592;48.140;7.614;2022-09-03T12:43:11;1.87;;;0.93;;
5147;SDS011;2592;48.140;7.614;2022-09-03T12:45:41;1.97;;;1.00;;
5147;SDS011;2592;48.140;7.614;2022-09-03T12:48:11;1.73;;;1.33;;
5147;SDS011;2592;48.140;7.614;2022-09-03T12:50:39;2.33;;;1.67;;
5147;SDS011;2592;48.140;7.614;2022-09-03T12:53:06;1.87;;;1.30;;
5147;SDS011;2592;48.140;7.614;2022-09-03T12:55:34;1.10;;;0.90;;
5147;SDS011;2592;48.140;7.614;2022-09-03T12:58:03;4.23;;;1.30;;
5147;SDS011;2592;48.140;7.614;2022-09-03T13:00:33;2.47;;;1.20;;
5147;SDS011;2592;48.140;7.614;2022-09-03T13:03:02;1.83;;;1.13;;
5147;SDS011;2592;48.140;7.614;2022-09-03T13:05:31;2.73;;;1.53;;
5147;SDS011;2592;48.140;7.614;2022-09-03T13:07:58;4.23;;;1.23;;
5147;SDS011;2592;48.140;7.614;2022-09-03T13:10:30;2.00;;;1.10;;
5147;SDS011;2592;48.140;7.614;2022-09-03T13:12:58;4.00;;;1.50;;
5147;SDS011;2592;48.140;7.614;2022-09-03T13:15:24;1.60;;;1.50;;
5147;SDS011;2592;48.140;7.614;2022-09-03T13:17:56;4.73;;;1.63;;
5147;SDS011;2592;48.140;7.614;2022-09-03T13:20:26;1.90;;;1.20;;
5147;SDS011;2592;48.140;7.614;2022-09-03T13:23:01;1.53;;;1.43;;
5147;SDS011;2592;48.140;7.614;2022-09-03T13:25:33;1.40;;;1.13;;
5147;SDS011;2592;48.140;7.614;2022-09-03T13:28:04;1.27;;;1.17;;
5147;SDS011;2592;48.140;7.614;2022-09-03T13:30:36;1.40;;;1.10;;
5147;SDS011;2592;48.140;7.614;2022-09-03T13:33:07;2.67;;;1.47;;
5147;SDS011;2592;48.140;7.614;2022-09-03T13:35:36;2.57;;;1.17;;
5147;SDS011;2592;48.140;7.614;2022-09-03T13:38:06;1.50;;;1.17;;
5147;SDS011;2592;48.140;7.614;2022-09-03T13:40:35;2.37;;;1.27;;
5147;SDS011;2592;48.140;7.614;2022-09-03T13:43:04;1.93;;;1.20;;
5147;SDS011;2592;48.140;7.614;2022-09-03T13:45:40;1.83;;;1.20;;
5147;SDS011;2592;48.140;7.614;2022-09-03T13:48:10;2.27;;;1.30;;
5147;SDS011;2592;48.140;7.614;2022-09-03T13:50:58;1.70;;;1.00;;
5147;SDS011;2592;48.140;7.614;2022-09-03T13:53:30;1.70;;;1.10;;
5147;SDS011;2592;48.140;7.614;2022-09-03T13:55:59;2.33;;;1.10;;
5147;SDS011;2592;48.140;7.614;2022-09-03T13:58:29;1.60;;;1.07;;
5147;SDS011;2592;48.140;7.614;2022-09-03T14:01:03;2.30;;;1.10;;
5147;SDS011;2592;48.140;7.614;2022-09-03T14:03:34;4.97;;;1.50;;
5147;SDS011;2592;48.140;7.614;2022-09-03T14:06:03;5.80;;;1.53;;
5147;SDS011;2592;48.140;7.614;2022-09-03T14:08:34;4.10;;;1.70;;
5147;SDS011;2592;48.140;7.614;2022-09-03T14:11:19;2.03;;;1.37;;
5147;SDS011;2592;48.140;7.614;2022-09-03T14:13:49;2.00;;;1.17;;
5147;SDS011;2592;48.140;7.614;2022-09-03T14:16:24;1.87;;;1.10;;
5147;SDS011;2592;48.140;7.614;2022-09-03T14:18:53;4.07;;;1.23;;
5147;SDS011;2592;48.140;7.614;2022-09-03T14:21:23;1.17;;;1.00;;
5147;SDS011;2592;48.140;7.614;2022-09-03T14:23:52;1.50;;;1.20;;
5147;SDS011;2592;48.140;7.614;2022-09-03T14:26:21;2.10;;;1.03;;
5147;SDS011;2592;48.140;7.614;2022-09-03T14:28:56;1.10;;;0.80;;
5147;SDS011;2592;48.140;7.614;2022-09-03T14:31:26;3.20;;;1.30;;
5147;SDS011;2592;48.140;7.614;2022-09-03T14:33:57;1.93;;;1.30;;
5147;SDS011;2592;48.140;7.614;2022-09-03T14:36:28;2.67;;;1.50;;
5147;SDS011;2592;48.140;7.614;2022-09-03T14:41:50;1.77;;;1.33;;
5147;SDS011;2592;48.140;7.614;2022-09-03T14:44:23;1.90;;;1.60;;
5147;SDS011;2592;48.140;7.614;2022-09-03T14:46:55;2.00;;;1.37;;
5147;SDS011;2592;48.140;7.614;2022-09-03T14:49:46;2.80;;;1.43;;
5147;SDS011;2592;48.140;7.614;2022-09-03T14:52:29;2.47;;;1.40;;
5147;SDS011;2592;48.140;7.614;2022-09-03T14:55:02;3.03;;;1.33;;
5147;SDS011;2592;48.140;7.614;2022-09-03T14:57:41;1.53;;;1.10;;
5147;SDS011;2592;48.140;7.614;2022-09-03T15:00:12;1.93;;;1.30;;
5147;SDS011;2592;48.140;7.614;2022-09-03T15:02:49;6.07;;;1.70;;
5147;SDS011;2592;48.140;7.614;2022-09-03T15:05:30;3.50;;;1.60;;
5147;SDS011;2592;48.140;7.614;2022-09-03T15:08:06;1.63;;;1.53;;
5147;SDS011;2592;48.140;7.614;2022-09-03T15:10:35;2.27;;;1.53;;
5147;SDS011;2592;48.140;7.614;2022-09-03T15:13:07;2.07;;;1.47;;
5147;SDS011;2592;48.140;7.614;2022-09-03T15:15:43;2.00;;;1.20;;
5147;SDS011;2592;48.140;7.614;2022-09-03T15:18:14;13.17;;;7.60;;
5147;SDS011;2592;48.140;7.614;2022-09-03T15:20:47;12.20;;;6.40;;
5147;SDS011;2592;48.140;7.614;2022-09-03T15:23:19;3.30;;;2.47;;
5147;SDS011;2592;48.140;7.614;2022-09-03T15:25:52;2.83;;;1.77;;
5147;SDS011;2592;48.140;7.614;2022-09-03T15:28:21;4.17;;;1.73;;
5147;SDS011;2592;48.140;7.614;2022-09-03T15:30:50;1.73;;;1.37;;
5147;SDS011;2592;48.140;7.614;2022-09-03T15:33:21;1.87;;;1.53;;
5147;SDS011;2592;48.140;7.614;2022-09-03T15:35:59;2.47;;;1.40;;